createdAt,value
2022-11-15T00:02:39.458Z,11.20
2022-11-15T00:05:26.319Z,12.35
2022-11-15T00:08:12.841Z,11.82
2022-11-15T00:11:01.111Z,10.93
2022-11-15T00:13:48.625Z,8.82
2022-11-15T00:16:36.387Z,7.47
2022-11-15T00:19:22.729Z,10.25
2022-11-15T00:22:09.308Z,8.70
2022-11-15T00:24:56.041Z,6.97
2022-11-15T00:27:43.180Z,8.80
2022-11-15T00:30:29.889Z,6.72
2022-11-15T00:33:16.227Z,8.65
2022-11-15T00:36:10.025Z,9.13
2022-11-15T00:38:56.306Z,9.90
2022-11-15T00:41:42.803Z,6.43
2022-11-15T00:44:29.415Z,8.68
2022-11-15T00:47:16.044Z,9.35
2022-11-15T00:50:02.450Z,8.45
2022-11-15T00:52:48.932Z,12.57
2022-11-15T00:55:42.129Z,7.40
2022-11-15T00:58:28.827Z,7.43
2022-11-15T01:01:15.748Z,11.50
2022-11-15T01:04:02.363Z,11.13
2022-11-15T01:06:48.980Z,13.20
2022-11-15T01:09:35.523Z,6.20
2022-11-15T01:12:22.215Z,8.98
2022-11-15T01:15:09.301Z,9.52
2022-11-15T01:17:55.836Z,9.80
2022-11-15T01:20:43.221Z,9.95
2022-11-15T01:23:30.186Z,7.13
2022-11-15T01:26:17.117Z,8.50
2022-11-15T01:29:03.673Z,8.63
2022-11-15T01:31:50.237Z,9.68
2022-11-15T01:34:36.721Z,10.38
2022-11-15T01:37:23.453Z,8.45
2022-11-15T01:40:10.323Z,10.00
2022-11-15T01:42:56.705Z,7.25
2022-11-15T01:45:50.072Z,7.57
2022-11-15T01:49:14.078Z,9.40
2022-11-15T01:52:03.214Z,9.45
2022-11-15T01:54:56.431Z,7.93
2022-11-15T01:57:46.298Z,8.32
2022-11-15T02:00:32.919Z,8.05
2022-11-15T02:03:19.147Z,5.47
2022-11-15T02:06:06.138Z,6.90
2022-11-15T02:08:53.991Z,6.68
2022-11-15T02:11:40.743Z,8.38
2022-11-15T02:14:29.201Z,5.35
2022-11-15T02:17:35.946Z,5.15
2022-11-15T02:20:34.357Z,6.32
2022-11-15T02:23:43.296Z,6.32
2022-11-15T02:27:07.222Z,12.93
2022-11-15T02:30:37.613Z,5.18
2022-11-15T02:33:41.753Z,5.97
2022-11-15T02:36:38.776Z,6.38
2022-11-15T02:39:36.814Z,6.57
2022-11-15T02:42:48.707Z,8.48
2022-11-15T02:45:41.834Z,7.85
2022-11-15T02:48:28.637Z,7.57
2022-11-15T02:51:17.682Z,8.98
2022-11-15T02:54:04.023Z,6.25
2022-11-15T02:56:54.429Z,5.68
2022-11-15T02:59:55.011Z,6.32
2022-11-15T03:03:35.888Z,5.60
2022-11-15T03:06:53.078Z,11.02
2022-11-15T03:09:54.334Z,7.70
2022-11-15T03:12:56.835Z,5.55
2022-11-15T03:15:54.685Z,8.38
2022-11-15T03:19:14.414Z,5.80
2022-11-15T03:22:04.453Z,7.15
2022-11-15T03:25:05.372Z,5.77
2022-11-15T03:27:59.115Z,8.38
2022-11-15T03:30:45.801Z,10.07
2022-11-15T03:33:33.027Z,6.60
2022-11-15T03:36:19.917Z,6.55
2022-11-15T03:39:08.655Z,5.68
2022-11-15T03:42:15.072Z,9.63
2022-11-15T03:45:46.347Z,7.95
2022-11-15T03:48:42.164Z,4.63
2022-11-15T03:51:29.782Z,5.15
2022-11-15T03:54:16.323Z,4.88
2022-11-15T03:57:02.763Z,5.45
2022-11-15T03:59:49.476Z,5.72
2022-11-15T04:02:41.007Z,5.60
2022-11-15T04:05:27.631Z,6.43
2022-11-15T04:08:13.975Z,5.10
2022-11-15T04:11:02.367Z,4.70
2022-11-15T04:13:49.183Z,6.72
2022-11-15T04:16:39.513Z,6.13
2022-11-15T04:19:47.790Z,7.22
2022-11-15T04:23:19.457Z,5.00
2022-11-15T04:26:11.056Z,6.00
2022-11-15T04:29:16.202Z,6.80
2022-11-15T04:32:07.605Z,5.50
2022-11-15T04:34:54.966Z,7.60
2022-11-15T04:37:46.405Z,9.63
2022-11-15T04:40:36.024Z,5.68
2022-11-15T04:43:22.671Z,8.00
2022-11-15T04:46:08.971Z,7.05
2022-11-15T04:48:58.924Z,6.75
2022-11-15T04:51:49.559Z,5.93
2022-11-15T04:54:36.039Z,7.38
2022-11-15T04:57:22.665Z,5.97
2022-11-15T05:00:13.978Z,6.50
2022-11-15T05:03:19.158Z,6.72
2022-11-15T05:06:06.183Z,6.25
2022-11-15T05:09:18.585Z,7.00
2022-11-15T05:12:08.912Z,6.43
2022-11-15T05:15:20.061Z,7.65
2022-11-15T05:18:23.599Z,5.20
2022-11-15T05:21:13.088Z,8.05
2022-11-15T05:23:59.782Z,9.88
2022-11-15T05:26:46.339Z,7.13
2022-11-15T05:29:45.779Z,7.65
2022-11-15T05:32:32.326Z,5.15
2022-11-15T05:35:32.191Z,7.10
2022-11-15T05:38:18.797Z,6.95
2022-11-15T05:41:07.083Z,7.88
2022-11-15T05:43:53.937Z,9.85
2022-11-15T05:46:42.224Z,4.78
2022-11-15T05:49:33.395Z,5.65
2022-11-15T05:52:26.844Z,6.50
2022-11-15T05:55:15.939Z,5.30
2022-11-15T05:58:04.059Z,6.50
2022-11-15T06:00:50.753Z,5.53
2022-11-15T06:03:37.243Z,5.75
2022-11-15T06:06:23.694Z,8.80
2022-11-15T06:09:31.786Z,7.70
2022-11-15T06:12:18.710Z,8.40
2022-11-15T06:15:05.295Z,8.93
2022-11-15T06:17:51.925Z,8.23
2022-11-15T06:20:38.599Z,6.50
2022-11-15T06:23:26.313Z,6.30
2022-11-15T06:26:12.609Z,6.72
2022-11-15T06:28:59.369Z,7.03
2022-11-15T06:31:45.736Z,7.28
2022-11-15T06:34:32.166Z,6.43
2022-11-15T06:37:20.325Z,6.15
2022-11-15T06:40:08.537Z,6.13
2022-11-15T06:43:01.909Z,6.53
2022-11-15T06:45:48.210Z,6.32
2022-11-15T06:48:35.067Z,6.18
2022-11-15T06:51:21.875Z,5.78
2022-11-15T06:54:08.249Z,6.50
2022-11-15T06:56:54.762Z,8.23
2022-11-15T06:59:41.402Z,5.90
2022-11-15T07:02:27.757Z,6.22
2022-11-15T07:05:15.440Z,4.78
2022-11-15T07:08:02.165Z,5.40
2022-11-15T07:10:48.914Z,6.30
2022-11-15T07:13:37.102Z,4.45
2022-11-15T07:16:23.429Z,6.13
2022-11-15T07:19:10.922Z,6.45
2022-11-15T07:22:01.870Z,7.22
2022-11-15T07:24:48.474Z,4.90
2022-11-15T07:27:35.000Z,8.77
2022-11-15T07:30:21.461Z,6.82
2022-11-15T07:33:07.917Z,6.30
2022-11-15T07:35:54.467Z,6.05
2022-11-15T07:38:43.050Z,9.48
2022-11-15T07:41:30.062Z,8.05
2022-11-15T07:44:16.678Z,5.40
2022-11-15T07:47:03.158Z,5.22
2022-11-15T07:49:49.791Z,6.15
2022-11-15T07:52:36.444Z,6.00
2022-11-15T07:55:24.148Z,5.32
2022-11-15T07:58:12.420Z,4.45
2022-11-15T08:00:58.964Z,8.95
2022-11-15T08:03:45.445Z,5.47
2022-11-15T08:06:31.976Z,6.80
2022-11-15T08:09:18.548Z,5.50
2022-11-15T08:12:05.380Z,7.80
2022-11-15T08:14:51.815Z,4.93
2022-11-15T08:17:38.494Z,8.55
2022-11-15T08:20:26.926Z,6.60
2022-11-15T08:23:14.053Z,5.15
2022-11-15T08:26:04.972Z,5.50
2022-11-15T08:28:55.676Z,6.70
2022-11-15T08:31:42.271Z,5.37
2022-11-15T08:34:28.807Z,7.75
2022-11-15T08:37:35.843Z,4.43
2022-11-15T08:40:22.417Z,4.53
2022-11-15T08:43:08.964Z,12.18
2022-11-15T08:46:02.551Z,5.55
2022-11-15T08:48:49.248Z,4.75
2022-11-15T08:51:35.829Z,5.00
2022-11-15T08:54:22.296Z,5.97
2022-11-15T08:57:10.380Z,4.75
2022-11-15T08:59:56.928Z,4.78
2022-11-15T09:02:43.573Z,4.35
2022-11-15T09:05:31.189Z,4.97
2022-11-15T09:08:47.113Z,5.72
2022-11-15T09:11:24.146Z,3.13
2022-11-15T09:14:13.320Z,4.22
2022-11-15T09:17:00.038Z,3.72
2022-11-15T09:19:48.912Z,4.63
2022-11-15T09:22:35.494Z,5.38
2022-11-15T09:25:21.677Z,3.50
2022-11-15T09:28:08.994Z,4.18
2022-11-15T09:31:00.448Z,4.03
2022-11-15T09:33:47.263Z,3.30
2022-11-15T09:36:33.307Z,4.45
2022-11-15T09:39:19.552Z,4.63
2022-11-15T09:42:24.103Z,4.93
2022-11-15T09:45:23.668Z,3.90
2022-11-15T09:49:00.726Z,3.75
2022-11-15T09:52:12.782Z,2.78
2022-11-15T09:54:54.016Z,4.25
2022-11-15T09:57:32.144Z,2.75
2022-11-15T10:00:48.910Z,2.13
2022-11-15T10:03:34.371Z,3.28
2022-11-15T10:06:05.326Z,3.63
2022-11-15T10:11:42.732Z,3.40
2022-11-15T10:14:21.173Z,2.20
2022-11-15T10:17:19.224Z,2.10
2022-11-15T10:19:50.271Z,2.47
2022-11-15T10:25:10.575Z,2.53
2022-11-15T10:27:39.463Z,2.58
2022-11-15T10:30:17.911Z,1.65
2022-11-15T10:32:48.125Z,1.70
2022-11-15T10:35:32.294Z,1.98
2022-11-15T10:38:09.392Z,3.50
2022-11-15T10:40:38.537Z,3.45
2022-11-15T10:43:12.217Z,4.60
2022-11-15T10:45:40.246Z,2.17
2022-11-15T10:48:13.876Z,1.67
2022-11-15T10:50:46.584Z,2.45
2022-11-15T10:53:27.042Z,2.28
2022-11-15T10:56:03.229Z,1.88
2022-11-15T10:58:51.348Z,0.98
2022-11-15T11:01:23.701Z,1.33
2022-11-15T11:04:00.979Z,2.42
2022-11-15T11:06:29.303Z,1.10
2022-11-15T11:09:01.828Z,2.88
2022-11-15T11:11:51.611Z,2.50
2022-11-15T11:14:32.507Z,2.97
2022-11-15T11:17:34.146Z,2.03
2022-11-15T11:20:41.369Z,1.13
2022-11-15T11:23:35.506Z,1.35
2022-11-15T11:26:14.063Z,1.13
2022-11-15T11:29:09.335Z,1.48
2022-11-15T11:31:43.332Z,1.10
2022-11-15T11:34:49.681Z,2.30
2022-11-15T11:37:29.950Z,0.80
2022-11-15T11:40:10.479Z,1.45
2022-11-15T11:43:30.042Z,2.80
2022-11-15T11:46:24.882Z,1.42
2022-11-15T11:49:10.372Z,0.80
2022-11-15T11:51:44.966Z,0.80
2022-11-15T11:54:34.555Z,0.85
2022-11-15T11:57:07.578Z,0.93
2022-11-15T12:00:01.972Z,3.15
2022-11-15T12:02:40.470Z,1.80
2022-11-15T12:05:28.433Z,0.77
2022-11-15T12:08:18.503Z,2.55
2022-11-15T12:10:59.140Z,1.02
2022-11-15T12:13:30.531Z,3.85
2022-11-15T12:16:10.703Z,0.73
2022-11-15T12:18:42.047Z,0.80
2022-11-15T12:21:23.978Z,1.13
2022-11-15T12:24:05.031Z,1.00
2022-11-15T12:26:43.859Z,3.20
2022-11-15T12:29:43.753Z,1.00
2022-11-15T12:32:29.991Z,1.07
2022-11-15T12:35:02.498Z,1.52
2022-11-15T12:37:39.364Z,0.93
2022-11-15T12:40:10.333Z,0.63
2022-11-15T12:42:45.721Z,2.00
2022-11-15T12:45:34.922Z,1.25
2022-11-15T12:48:17.761Z,2.13
2022-11-15T12:50:51.390Z,1.40
2022-11-15T12:53:25.361Z,1.00
2022-11-15T12:56:17.638Z,1.73
2022-11-15T12:59:00.033Z,1.77
2022-11-15T13:01:36.476Z,3.38
2022-11-15T13:04:28.182Z,3.65
2022-11-15T13:06:59.188Z,3.85
2022-11-15T13:09:33.009Z,3.85
2022-11-15T13:12:39.833Z,4.53
2022-11-15T13:15:13.055Z,4.63
2022-11-15T13:17:55.504Z,4.18
2022-11-15T13:20:32.765Z,4.40
2022-11-15T13:23:12.607Z,2.33
2022-11-15T13:26:12.841Z,3.65
2022-11-15T13:28:52.921Z,2.55
2022-11-15T13:31:37.978Z,1.92
2022-11-15T13:34:51.065Z,2.35
2022-11-15T13:37:23.440Z,5.57
2022-11-15T13:39:51.576Z,2.08
2022-11-15T13:42:21.349Z,1.20
2022-11-15T13:45:01.951Z,2.83
2022-11-15T13:49:59.006Z,29.98
2022-11-15T13:52:36.502Z,2.42
2022-11-15T13:55:19.686Z,3.15
2022-11-15T13:58:07.277Z,2.72
2022-11-15T14:00:36.785Z,3.03
2022-11-15T14:03:25.798Z,2.80
2022-11-15T14:06:16.242Z,2.28
2022-11-15T14:09:10.165Z,1.13
2022-11-15T14:11:43.300Z,1.92
2022-11-15T14:14:16.238Z,1.13
2022-11-15T14:17:02.091Z,0.90
2022-11-15T14:19:37.725Z,1.40
2022-11-15T14:22:33.533Z,1.23
2022-11-15T14:25:25.872Z,1.35
2022-11-15T14:28:23.763Z,1.02
2022-11-15T14:30:54.219Z,1.10
2022-11-15T14:36:00.591Z,1.40
2022-11-15T14:38:55.661Z,1.17
2022-11-15T14:41:28.346Z,1.33
2022-11-15T14:43:56.376Z,1.25
2022-11-15T14:46:25.273Z,2.53
2022-11-15T14:48:53.148Z,1.42
2022-11-15T14:51:46.356Z,1.23
2022-11-15T14:54:14.326Z,1.52
2022-11-15T14:56:43.740Z,1.27
2022-11-15T14:59:11.649Z,1.20
2022-11-15T15:01:39.731Z,2.47
2022-11-15T15:04:09.772Z,1.35
2022-11-15T15:07:03.126Z,1.23
2022-11-15T15:09:31.182Z,1.80
2022-11-15T15:12:04.896Z,1.42
2022-11-15T15:14:34.386Z,1.35
2022-11-15T15:17:02.660Z,2.97
2022-11-15T15:19:30.753Z,1.58
2022-11-15T15:22:33.075Z,2.90
2022-11-15T15:25:01.571Z,3.17
2022-11-15T15:27:29.891Z,2.75
2022-11-15T15:29:57.702Z,1.40
2022-11-15T15:32:25.135Z,1.33
2022-11-15T15:34:53.231Z,1.95
2022-11-15T15:37:26.424Z,1.40
2022-11-15T15:39:56.852Z,3.63
2022-11-15T15:42:25.305Z,3.00
2022-11-15T15:44:53.276Z,4.70
2022-11-15T15:47:23.250Z,4.55
2022-11-15T15:49:51.917Z,9.90
2022-11-15T15:52:20.276Z,4.93
2022-11-15T15:54:48.204Z,5.13
2022-11-15T15:57:19.512Z,3.58
2022-11-15T15:59:49.063Z,8.20
2022-11-15T16:02:24.081Z,3.22
2022-11-15T16:04:51.954Z,2.75
2022-11-15T16:07:25.076Z,2.33
2022-11-15T16:10:02.303Z,2.10
2022-11-15T16:12:35.538Z,3.15
2022-11-15T16:15:04.290Z,3.50
2022-11-15T16:17:40.358Z,5.45
2022-11-15T16:20:12.286Z,3.58
2022-11-15T16:22:40.558Z,3.00
2022-11-15T16:25:08.946Z,4.95
2022-11-15T16:27:39.452Z,2.35
2022-11-15T16:30:16.212Z,3.33
2022-11-15T16:32:44.294Z,4.45
2022-11-15T16:35:15.922Z,4.60
2022-11-15T16:37:46.467Z,3.47
2022-11-15T16:40:31.856Z,3.13
2022-11-15T16:43:02.821Z,5.05
2022-11-15T16:45:34.532Z,4.28
2022-11-15T16:48:03.837Z,4.45
2022-11-15T16:50:39.692Z,3.92
2022-11-15T16:53:09.351Z,5.32
2022-11-15T16:55:37.355Z,3.58
2022-11-15T16:58:05.249Z,4.07
2022-11-15T17:00:34.878Z,5.47
2022-11-15T17:03:03.789Z,6.78
2022-11-15T17:05:31.666Z,6.32
2022-11-15T17:08:01.338Z,4.32
2022-11-15T17:10:53.543Z,4.82
2022-11-15T17:13:26.114Z,5.32
2022-11-15T17:16:05.217Z,11.88
2022-11-15T17:18:34.082Z,3.72
2022-11-15T17:21:16.152Z,3.85
2022-11-15T17:23:44.451Z,6.65
2022-11-15T17:26:29.496Z,5.45
2022-11-15T17:29:01.269Z,3.63
2022-11-15T17:31:53.739Z,6.03
2022-11-15T17:34:21.747Z,4.05
2022-11-15T17:36:49.761Z,2.63
2022-11-15T17:39:36.490Z,3.25
2022-11-15T17:42:06.689Z,3.08
2022-11-15T17:44:34.497Z,4.28
2022-11-15T17:47:02.318Z,2.55
2022-11-15T17:49:54.698Z,2.30
2022-11-15T17:52:25.360Z,5.85
2022-11-15T17:54:56.317Z,4.30
2022-11-15T17:57:30.076Z,5.32
2022-11-15T18:00:04.116Z,3.10
2022-11-15T18:02:32.100Z,3.60
2022-11-15T18:05:01.588Z,7.38
2022-11-15T18:07:54.596Z,3.72
2022-11-15T18:10:25.475Z,5.15
2022-11-15T18:12:53.381Z,2.95
2022-11-15T18:15:25.359Z,3.80
2022-11-15T18:20:43.641Z,4.25
2022-11-15T18:23:11.657Z,3.10
2022-11-15T18:25:39.714Z,3.88
2022-11-15T18:28:07.609Z,4.35
2022-11-15T18:30:47.330Z,6.82
2022-11-15T18:33:21.742Z,4.00
2022-11-15T18:35:55.977Z,3.00
2022-11-15T18:38:23.965Z,7.63
2022-11-15T18:40:51.829Z,5.50
2022-11-15T18:43:19.768Z,4.25
2022-11-15T18:45:47.760Z,5.18
2022-11-15T18:48:18.685Z,6.75
2022-11-15T18:50:46.756Z,5.05
2022-11-15T18:53:15.891Z,4.95
2022-11-15T18:55:48.536Z,5.93
2022-11-15T18:58:19.168Z,3.65
2022-11-15T19:00:49.238Z,4.82
2022-11-15T19:03:23.458Z,6.40
2022-11-15T19:05:54.754Z,5.40
2022-11-15T19:08:22.798Z,3.92
2022-11-15T19:10:51.761Z,3.15
2022-11-15T19:13:19.657Z,5.78
2022-11-15T19:15:49.597Z,6.10
2022-11-15T19:18:23.363Z,4.00
2022-11-15T19:20:51.470Z,5.82
2022-11-15T19:23:19.398Z,3.95
2022-11-15T19:26:00.024Z,5.82
2022-11-15T19:28:28.820Z,4.35
2022-11-15T19:31:07.828Z,4.60
2022-11-15T19:33:36.184Z,2.90
2022-11-15T19:36:06.763Z,5.78
2022-11-15T19:38:36.632Z,4.25
2022-11-15T19:41:07.479Z,3.17
2022-11-15T19:44:03.659Z,7.63
2022-11-15T19:46:31.637Z,4.80
2022-11-15T19:48:59.623Z,3.63
2022-11-15T19:51:36.606Z,4.95
2022-11-15T19:54:08.680Z,4.30
2022-11-15T19:56:37.460Z,2.90
2022-11-15T19:59:05.818Z,3.40
2022-11-15T20:01:41.253Z,4.35
2022-11-15T20:04:11.066Z,5.25
2022-11-15T20:06:43.050Z,3.70
2022-11-15T20:09:15.862Z,4.25
2022-11-15T20:11:44.117Z,3.13
2022-11-15T20:14:13.001Z,3.15
2022-11-15T20:16:41.155Z,2.67
2022-11-15T20:19:09.197Z,4.40
2022-11-15T20:22:01.563Z,4.80
2022-11-15T20:24:32.328Z,10.98
2022-11-15T20:27:00.253Z,10.75
2022-11-15T20:29:43.665Z,8.25
2022-11-15T20:32:12.697Z,6.80
2022-11-15T20:34:40.642Z,6.63
2022-11-15T20:37:10.203Z,4.72
2022-11-15T20:39:48.755Z,4.07
2022-11-15T20:42:19.763Z,3.38
2022-11-15T20:44:54.571Z,3.33
2022-11-15T20:47:27.668Z,3.40
2022-11-15T20:50:09.636Z,2.80
2022-11-15T20:52:49.629Z,2.78
2022-11-15T20:57:45.610Z,2.50
2022-11-15T21:00:13.905Z,3.55
2022-11-15T21:02:41.779Z,4.28
2022-11-15T21:05:38.804Z,4.63
2022-11-15T21:08:57.507Z,2.80
2022-11-15T21:11:45.367Z,2.85
2022-11-15T21:14:13.346Z,4.57
2022-11-15T21:16:41.194Z,2.30
2022-11-15T21:19:09.170Z,2.65
2022-11-15T21:21:37.371Z,2.30
2022-11-15T21:24:07.828Z,3.05
2022-11-15T21:27:01.106Z,2.97
2022-11-15T21:29:38.098Z,2.55
2022-11-15T21:32:09.653Z,3.30
2022-11-15T21:34:37.634Z,2.33
2022-11-15T21:37:06.885Z,2.72
2022-11-15T21:39:35.862Z,2.28
2022-11-15T21:42:04.063Z,2.63
2022-11-15T21:44:32.191Z,3.08
2022-11-15T21:47:00.211Z,2.35
2022-11-15T21:49:28.014Z,1.85
2022-11-15T21:51:55.925Z,2.33
2022-11-15T21:54:28.275Z,3.35
2022-11-15T21:56:56.082Z,3.42
2022-11-15T21:59:24.024Z,4.70
2022-11-15T22:02:10.372Z,3.30
2022-11-15T22:04:38.222Z,3.25
2022-11-15T22:07:06.270Z,2.22
2022-11-15T22:09:59.448Z,3.22
2022-11-15T22:12:30.454Z,6.47
2022-11-15T22:14:58.343Z,4.07
2022-11-15T22:17:46.587Z,2.45
2022-11-15T22:20:42.954Z,4.82
2022-11-15T22:23:05.966Z,2.03
2022-11-15T22:25:33.879Z,1.65
2022-11-15T22:28:01.780Z,2.83
2022-11-15T22:30:29.754Z,1.92
2022-11-15T22:32:57.648Z,3.42
2022-11-15T22:35:25.619Z,2.22
2022-11-15T22:37:55.722Z,2.63
2022-11-15T22:40:23.666Z,3.60
2022-11-15T22:42:51.660Z,3.05
2022-11-15T22:45:19.592Z,2.20
2022-11-15T22:47:47.494Z,2.58
2022-11-15T22:50:15.486Z,3.45
2022-11-15T22:52:43.683Z,2.17
2022-11-15T22:55:11.805Z,4.80
2022-11-15T22:57:39.875Z,2.30
2022-11-15T23:00:12.733Z,2.10
2022-11-15T23:02:40.751Z,2.75
2022-11-15T23:05:09.068Z,3.67
2022-11-15T23:07:37.107Z,2.00
2022-11-15T23:10:47.912Z,2.85
2022-11-15T23:13:15.991Z,4.50
2022-11-15T23:16:08.253Z,1.98
2022-11-15T23:18:39.015Z,1.95
2022-11-15T23:21:41.239Z,2.58
2022-11-15T23:24:11.667Z,3.85
2022-11-15T23:26:39.779Z,2.67
2022-11-15T23:29:10.249Z,2.95
2022-11-15T23:32:02.118Z,1.98
2022-11-15T23:34:38.203Z,2.63
2022-11-15T23:37:09.797Z,1.77
2022-11-15T23:39:37.887Z,2.58
2022-11-15T23:42:09.088Z,4.65
2022-11-15T23:44:37.766Z,2.40
2022-11-15T23:47:05.756Z,3.55
2022-11-15T23:49:33.727Z,2.72
2022-11-15T23:52:02.646Z,1.63
2022-11-15T23:54:30.766Z,3.22
2022-11-15T23:56:58.739Z,2.88
2022-11-15T23:59:26.682Z,7.72
